Terminal Aerodrome Forecast
Issued by NWS Sterling, VA

Home | Current Version | Previous Version | Text Only | Print | Product List | Glossary On
Versions: 1 2 3 4 5 6 7 8 9 10 11 12 13 14
393
FTUS41 KLWX 212332
TAFCHO
TAF
KCHO 212332Z 2200/2224 18006KT P6SM SCT200
     FM220600 VRB03KT P6SM SCT200
     FM220900 VRB03KT 5SM BR FEW200
     FM221200 22004KT P6SM SCT200
     FM221600 21010G18KT P6SM SCT050=

USA.gov is the U.S. government's official web portal to all federal, state and local government web resources and services.